sensor_id;sensor_type;location;lat;lon;timestamp;pressure;altitude;pressure_sealevel;temperature;humidity
58223;BME280;44020;50.890;15.796;2023-09-19T00:00:43;96969.66;;;18.31;100.00
58223;BME280;44020;50.890;15.796;2023-09-19T00:03:31;96967.27;;;18.29;100.00
58223;BME280;44020;50.890;15.796;2023-09-19T00:05:58;96969.75;;;18.25;100.00
58223;BME280;44020;50.890;15.796;2023-09-19T00:08:25;96970.42;;;18.22;100.00
58223;BME280;44020;50.890;15.796;2023-09-19T00:10:54;96963.33;;;18.20;100.00
58223;BME280;44020;50.890;15.796;2023-09-19T00:13:21;96965.71;;;18.21;100.00
58223;BME280;44020;50.890;15.796;2023-09-19T00:15:49;96964.77;;;18.20;100.00
58223;BME280;44020;50.890;15.796;2023-09-19T00:18:20;96960.98;;;18.17;100.00
58223;BME280;44020;50.890;15.796;2023-09-19T00:20:48;96965.77;;;18.18;100.00
58223;BME280;44020;50.890;15.796;2023-09-19T00:23:17;96962.48;;;18.16;100.00
58223;BME280;44020;50.890;15.796;2023-09-19T00:25:45;96951.96;;;18.14;100.00
58223;BME280;44020;50.890;15.796;2023-09-19T00:28:13;96952.50;;;18.11;100.00
58223;BME280;44020;50.890;15.796;2023-09-19T00:30:44;96949.42;;;18.09;100.00
58223;BME280;44020;50.890;15.796;2023-09-19T00:33:12;96951.42;;;18.09;100.00
58223;BME280;44020;50.890;15.796;2023-09-19T00:35:50;96950.27;;;18.09;100.00
58223;BME280;44020;50.890;15.796;2023-09-19T00:38:19;96948.63;;;18.10;100.00
58223;BME280;44020;50.890;15.796;2023-09-19T00:40:50;96942.64;;;18.07;100.00
58223;BME280;44020;50.890;15.796;2023-09-19T00:43:20;96939.95;;;18.06;100.00
58223;BME280;44020;50.890;15.796;2023-09-19T00:45:51;96936.88;;;18.04;100.00
58223;BME280;44020;50.890;15.796;2023-09-19T00:48:22;96936.59;;;18.04;100.00
58223;BME280;44020;50.890;15.796;2023-09-19T00:50:50;96939.71;;;18.04;100.00
58223;BME280;44020;50.890;15.796;2023-09-19T00:53:23;96943.85;;;18.04;100.00
58223;BME280;44020;50.890;15.796;2023-09-19T00:55:52;96943.30;;;18.00;100.00
58223;BME280;44020;50.890;15.796;2023-09-19T00:58:20;96946.41;;;17.96;100.00
58223;BME280;44020;50.890;15.796;2023-09-19T01:00:51;96944.87;;;17.96;100.00
58223;BME280;44020;50.890;15.796;2023-09-19T01:03:19;96947.96;;;17.95;100.00
58223;BME280;44020;50.890;15.796;2023-09-19T01:05:47;96943.16;;;17.92;100.00
58223;BME280;44020;50.890;15.796;2023-09-19T01:08:14;96941.69;;;17.89;100.00
58223;BME280;44020;50.890;15.796;2023-09-19T01:10:51;96944.78;;;17.88;100.00
58223;BME280;44020;50.890;15.796;2023-09-19T01:13:26;96944.55;;;17.87;100.00
58223;BME280;44020;50.890;15.796;2023-09-19T01:18:47;96948.63;;;17.86;100.00
58223;BME280;44020;50.890;15.796;2023-09-19T01:29:42;96954.79;;;17.74;100.00
58223;BME280;44020;50.890;15.796;2023-09-19T01:32:14;96956.85;;;17.70;100.00
58223;BME280;44020;50.890;15.796;2023-09-19T01:34:55;96957.39;;;17.65;100.00
58223;BME280;44020;50.890;15.796;2023-09-19T01:37:31;96959.89;;;17.62;100.00
58223;BME280;44020;50.890;15.796;2023-09-19T01:40:02;96964.25;;;17.60;100.00
58223;BME280;44020;50.890;15.796;2023-09-19T01:48:30;96974.18;;;17.55;100.00
58223;BME280;44020;50.890;15.796;2023-09-19T01:51:02;96975.13;;;17.55;100.00
58223;BME280;44020;50.890;15.796;2023-09-19T01:53:51;96967.01;;;17.55;100.00
58223;BME280;44020;50.890;15.796;2023-09-19T01:56:34;96968.20;;;17.54;100.00
58223;BME280;44020;50.890;15.796;2023-09-19T01:59:13;96962.98;;;17.51;100.00
58223;BME280;44020;50.890;15.796;2023-09-19T02:01:42;96961.02;;;17.45;100.00
58223;BME280;44020;50.890;15.796;2023-09-19T02:04:11;96961.06;;;17.42;100.00
58223;BME280;44020;50.890;15.796;2023-09-19T02:06:42;96963.49;;;17.39;100.00
58223;BME280;44020;50.890;15.796;2023-09-19T02:09:10;96963.79;;;17.35;100.00
58223;BME280;44020;50.890;15.796;2023-09-19T02:11:37;96956.70;;;17.34;100.00
58223;BME280;44020;50.890;15.796;2023-09-19T02:14:05;96951.67;;;17.31;100.00
58223;BME280;44020;50.890;15.796;2023-09-19T02:16:35;96953.52;;;17.29;100.00
58223;BME280;44020;50.890;15.796;2023-09-19T02:19:02;96946.19;;;17.27;100.00
58223;BME280;44020;50.890;15.796;2023-09-19T02:21:32;96943.64;;;17.24;100.00
58223;BME280;44020;50.890;15.796;2023-09-19T02:24:03;96944.16;;;17.22;100.00
58223;BME280;44020;50.890;15.796;2023-09-19T02:26:30;96944.08;;;17.20;100.00
58223;BME280;44020;50.890;15.796;2023-09-19T02:28:57;96944.70;;;17.17;100.00
58223;BME280;44020;50.890;15.796;2023-09-19T02:31:25;96943.61;;;17.12;100.00
58223;BME280;44020;50.890;15.796;2023-09-19T02:33:52;96950.24;;;17.09;100.00
58223;BME280;44020;50.890;15.796;2023-09-19T02:36:19;96954.92;;;17.06;100.00
58223;BME280;44020;50.890;15.796;2023-09-19T02:38:46;96953.28;;;17.03;100.00
58223;BME280;44020;50.890;15.796;2023-09-19T02:41:13;96947.42;;;17.00;100.00
58223;BME280;44020;50.890;15.796;2023-09-19T02:43:41;96950.01;;;16.98;100.00
58223;BME280;44020;50.890;15.796;2023-09-19T02:46:10;96952.10;;;16.97;100.00
58223;BME280;44020;50.890;15.796;2023-09-19T02:48:38;96956.23;;;16.94;100.00
58223;BME280;44020;50.890;15.796;2023-09-19T02:51:05;96960.40;;;16.94;100.00
58223;BME280;44020;50.890;15.796;2023-09-19T02:53:32;96957.53;;;16.92;100.00
58223;BME280;44020;50.890;15.796;2023-09-19T02:56:02;96960.48;;;16.90;100.00
58223;BME280;44020;50.890;15.796;2023-09-19T02:58:31;96960.09;;;16.88;100.00
58223;BME280;44020;50.890;15.796;2023-09-19T03:01:11;96960.29;;;16.87;100.00
58223;BME280;44020;50.890;15.796;2023-09-19T03:03:39;96957.05;;;16.84;100.00
58223;BME280;44020;50.890;15.796;2023-09-19T03:06:07;96958.86;;;16.84;100.00
58223;BME280;44020;50.890;15.796;2023-09-19T03:08:40;96960.02;;;16.84;100.00
58223;BME280;44020;50.890;15.796;2023-09-19T03:11:09;96960.02;;;16.81;100.00
58223;BME280;44020;50.890;15.796;2023-09-19T03:13:38;96961.88;;;16.78;100.00
58223;BME280;44020;50.890;15.796;2023-09-19T03:16:06;96962.66;;;16.77;100.00
58223;BME280;44020;50.890;15.796;2023-09-19T03:18:34;96965.62;;;16.75;100.00
58223;BME280;44020;50.890;15.796;2023-09-19T03:21:02;96964.84;;;16.74;100.00
58223;BME280;44020;50.890;15.796;2023-09-19T03:23:29;96964.30;;;16.74;100.00
58223;BME280;44020;50.890;15.796;2023-09-19T03:25:57;96954.54;;;16.74;100.00
58223;BME280;44020;50.890;15.796;2023-09-19T03:28:25;96953.37;;;16.74;100.00
58223;BME280;44020;50.890;15.796;2023-09-19T03:31:01;96950.00;;;16.73;100.00
58223;BME280;44020;50.890;15.796;2023-09-19T03:33:28;96950.48;;;16.72;100.00
58223;BME280;44020;50.890;15.796;2023-09-19T03:35:55;96951.34;;;16.72;100.00
58223;BME280;44020;50.890;15.796;2023-09-19T03:38:26;96947.55;;;16.71;100.00
58223;BME280;44020;50.890;15.796;2023-09-19T03:40:54;96953.87;;;16.69;100.00
58223;BME280;44020;50.890;15.796;2023-09-19T03:43:21;96949.70;;;16.68;100.00
58223;BME280;44020;50.890;15.796;2023-09-19T03:45:48;96955.91;;;16.67;100.00
58223;BME280;44020;50.890;15.796;2023-09-19T03:48:16;96958.03;;;16.67;100.00
58223;BME280;44020;50.890;15.796;2023-09-19T03:50:44;96956.71;;;16.68;100.00
58223;BME280;44020;50.890;15.796;2023-09-19T03:53:11;96957.02;;;16.68;100.00
58223;BME280;44020;50.890;15.796;2023-09-19T03:55:38;96951.77;;;16.67;100.00
58223;BME280;44020;50.890;15.796;2023-09-19T03:58:08;96954.27;;;16.67;100.00
58223;BME280;44020;50.890;15.796;2023-09-19T04:00:35;96951.60;;;16.68;100.00
58223;BME280;44020;50.890;15.796;2023-09-19T04:03:02;96947.09;;;16.67;100.00
58223;BME280;44020;50.890;15.796;2023-09-19T04:05:32;96945.58;;;16.64;100.00
58223;BME280;44020;50.890;15.796;2023-09-19T04:08:00;96954.45;;;16.62;100.00
58223;BME280;44020;50.890;15.796;2023-09-19T04:10:28;96957.88;;;16.61;100.00
58223;BME280;44020;50.890;15.796;2023-09-19T04:12:56;96956.73;;;16.59;100.00
58223;BME280;44020;50.890;15.796;2023-09-19T04:15:24;96960.16;;;16.57;100.00
58223;BME280;44020;50.890;15.796;2023-09-19T04:17:51;96961.16;;;16.56;100.00
58223;BME280;44020;50.890;15.796;2023-09-19T04:20:18;96961.09;;;16.55;100.00
58223;BME280;44020;50.890;15.796;2023-09-19T04:22:52;96967.05;;;16.55;100.00
58223;BME280;44020;50.890;15.796;2023-09-19T04:25:19;96973.52;;;16.51;100.00
58223;BME280;44020;50.890;15.796;2023-09-19T04:27:47;96969.88;;;16.49;100.00
58223;BME280;44020;50.890;15.796;2023-09-19T04:30:14;96973.58;;;16.46;100.00
58223;BME280;44020;50.890;15.796;2023-09-19T04:32:41;96974.91;;;16.43;100.00
58223;BME280;44020;50.890;15.796;2023-09-19T04:35:10;96982.52;;;16.40;100.00
58223;BME280;44020;50.890;15.796;2023-09-19T04:37:41;96990.42;;;16.40;100.00
58223;BME280;44020;50.890;15.796;2023-09-19T04:40:11;96993.89;;;16.40;100.00
58223;BME280;44020;50.890;15.796;2023-09-19T04:42:44;96997.91;;;16.37;100.00
58223;BME280;44020;50.890;15.796;2023-09-19T04:45:11;96999.95;;;16.37;100.00
58223;BME280;44020;50.890;15.796;2023-09-19T04:47:39;96998.31;;;16.35;100.00
58223;BME280;44020;50.890;15.796;2023-09-19T04:50:08;97002.05;;;16.31;100.00
58223;BME280;44020;50.890;15.796;2023-09-19T04:52:39;97001.14;;;16.29;100.00
58223;BME280;44020;50.890;15.796;2023-09-19T04:55:10;97007.63;;;16.29;100.00
58223;BME280;44020;50.890;15.796;2023-09-19T04:57:37;97015.48;;;16.29;100.00
58223;BME280;44020;50.890;15.796;2023-09-19T05:00:06;97018.58;;;16.29;100.00
58223;BME280;44020;50.890;15.796;2023-09-19T05:02:39;97017.19;;;16.30;100.00
58223;BME280;44020;50.890;15.796;2023-09-19T05:05:07;97022.52;;;16.29;100.00
58223;BME280;44020;50.890;15.796;2023-09-19T05:07:35;97021.29;;;16.27;100.00
58223;BME280;44020;50.890;15.796;2023-09-19T05:10:03;97027.60;;;16.26;100.00
58223;BME280;44020;50.890;15.796;2023-09-19T05:12:36;97028.30;;;16.26;100.00
58223;BME280;44020;50.890;15.796;2023-09-19T05:15:04;97031.34;;;16.26;100.00
58223;BME280;44020;50.890;15.796;2023-09-19T05:17:34;97025.48;;;16.26;100.00
58223;BME280;44020;50.890;15.796;2023-09-19T05:20:02;97026.76;;;16.26;100.00
58223;BME280;44020;50.890;15.796;2023-09-19T05:23:11;97029.96;;;16.26;100.00
58223;BME280;44020;50.890;15.796;2023-09-19T05:25:39;97033.05;;;16.27;100.00
58223;BME280;44020;50.890;15.796;2023-09-19T05:28:08;97038.78;;;16.29;100.00
58223;BME280;44020;50.890;15.796;2023-09-19T05:30:36;97038.63;;;16.31;100.00
58223;BME280;44020;50.890;15.796;2023-09-19T05:33:05;97040.46;;;16.32;100.00
58223;BME280;44020;50.890;15.796;2023-09-19T05:35:32;97041.58;;;16.31;100.00
58223;BME280;44020;50.890;15.796;2023-09-19T05:38:00;97045.44;;;16.32;100.00
58223;BME280;44020;50.890;15.796;2023-09-19T05:40:27;97048.91;;;16.33;100.00
58223;BME280;44020;50.890;15.796;2023-09-19T05:42:54;97052.86;;;16.35;100.00
58223;BME280;44020;50.890;15.796;2023-09-19T05:45:21;97058.14;;;16.36;100.00
58223;BME280;44020;50.890;15.796;2023-09-19T05:47:53;97058.34;;;16.37;100.00
58223;BME280;44020;50.890;15.796;2023-09-19T05:50:28;97055.84;;;16.39;100.00
58223;BME280;44020;50.890;15.796;2023-09-19T05:52:55;97058.74;;;16.42;100.00
58223;BME280;44020;50.890;15.796;2023-09-19T05:55:22;97054.23;;;16.46;100.00
58223;BME280;44020;50.890;15.796;2023-09-19T05:57:52;97049.17;;;16.48;100.00
58223;BME280;44020;50.890;15.796;2023-09-19T06:00:21;97050.27;;;16.51;100.00
58223;BME280;44020;50.890;15.796;2023-09-19T06:02:54;97056.52;;;16.53;100.00
58223;BME280;44020;50.890;15.796;2023-09-19T06:05:24;97053.36;;;16.56;100.00
58223;BME280;44020;50.890;15.796;2023-09-19T06:07:53;97058.08;;;16.57;100.00
58223;BME280;44020;50.890;15.796;2023-09-19T06:10:21;97056.42;;;16.59;100.00
58223;BME280;44020;50.890;15.796;2023-09-19T06:12:49;97057.59;;;16.62;100.00
58223;BME280;44020;50.890;15.796;2023-09-19T06:15:17;97062.41;;;16.64;100.00
58223;BME280;44020;50.890;15.796;2023-09-19T06:17:51;97071.51;;;16.68;100.00
58223;BME280;44020;50.890;15.796;2023-09-19T06:20:18;97076.52;;;16.69;100.00
58223;BME280;44020;50.890;15.796;2023-09-19T06:22:46;97079.96;;;16.71;100.00
58223;BME280;44020;50.890;15.796;2023-09-19T06:25:14;97082.69;;;16.72;100.00
58223;BME280;44020;50.890;15.796;2023-09-19T06:27:49;97079.02;;;16.74;100.00
58223;BME280;44020;50.890;15.796;2023-09-19T06:30:20;97075.27;;;16.76;100.00
58223;BME280;44020;50.890;15.796;2023-09-19T06:32:47;97081.51;;;16.78;100.00
58223;BME280;44020;50.890;15.796;2023-09-19T06:35:16;97080.46;;;16.80;100.00
58223;BME280;44020;50.890;15.796;2023-09-19T06:37:43;97080.61;;;16.82;100.00
58223;BME280;44020;50.890;15.796;2023-09-19T06:40:11;97080.92;;;16.84;100.00
58223;BME280;44020;50.890;15.796;2023-09-19T06:42:50;97082.31;;;16.86;100.00
58223;BME280;44020;50.890;15.796;2023-09-19T06:45:17;97085.82;;;16.89;100.00
58223;BME280;44020;50.890;15.796;2023-09-19T06:47:45;97090.06;;;16.91;100.00
58223;BME280;44020;50.890;15.796;2023-09-19T06:50:25;97092.36;;;16.95;100.00
58223;BME280;44020;50.890;15.796;2023-09-19T06:52:54;97094.29;;;16.98;100.00
58223;BME280;44020;50.890;15.796;2023-09-19T06:55:22;97099.96;;;17.03;100.00
58223;BME280;44020;50.890;15.796;2023-09-19T06:57:52;97105.56;;;17.05;100.00
58223;BME280;44020;50.890;15.796;2023-09-19T07:00:21;97105.99;;;17.10;100.00
58223;BME280;44020;50.890;15.796;2023-09-19T07:03:00;97109.45;;;17.14;100.00
58223;BME280;44020;50.890;15.796;2023-09-19T07:05:28;97119.48;;;17.21;100.00
58223;BME280;44020;50.890;15.796;2023-09-19T07:07:55;97123.60;;;17.28;100.00
58223;BME280;44020;50.890;15.796;2023-09-19T07:10:22;97131.02;;;17.36;100.00
58223;BME280;44020;50.890;15.796;2023-09-19T07:12:58;97135.76;;;17.44;100.00
58223;BME280;44020;50.890;15.796;2023-09-19T07:15:28;97138.70;;;17.52;100.00
58223;BME280;44020;50.890;15.796;2023-09-19T07:17:55;97137.27;;;17.60;100.00
58223;BME280;44020;50.890;15.796;2023-09-19T07:20:24;97142.91;;;17.68;100.00
58223;BME280;44020;50.890;15.796;2023-09-19T07:22:55;97146.08;;;17.75;100.00
58223;BME280;44020;50.890;15.796;2023-09-19T07:25:22;97147.32;;;17.82;100.00
58223;BME280;44020;50.890;15.796;2023-09-19T07:27:49;97153.63;;;17.90;100.00
58223;BME280;44020;50.890;15.796;2023-09-19T07:30:18;97155.42;;;17.93;100.00
58223;BME280;44020;50.890;15.796;2023-09-19T07:32:45;97159.58;;;18.00;100.00
58223;BME280;44020;50.890;15.796;2023-09-19T07:35:12;97160.83;;;18.08;100.00
58223;BME280;44020;50.890;15.796;2023-09-19T07:37:39;97165.95;;;18.15;100.00
58223;BME280;44020;50.890;15.796;2023-09-19T07:40:06;97166.48;;;18.20;100.00
58223;BME280;44020;50.890;15.796;2023-09-19T07:42:36;97167.44;;;18.25;100.00
58223;BME280;44020;50.890;15.796;2023-09-19T07:45:08;97172.52;;;18.29;100.00
58223;BME280;44020;50.890;15.796;2023-09-19T07:47:36;97173.39;;;18.33;100.00
58223;BME280;44020;50.890;15.796;2023-09-19T07:50:03;97178.30;;;18.39;100.00
58223;BME280;44020;50.890;15.796;2023-09-19T07:52:30;97177.02;;;18.43;100.00
58223;BME280;44020;50.890;15.796;2023-09-19T07:55:00;97178.34;;;18.46;100.00
58223;BME280;44020;50.890;15.796;2023-09-19T07:57:28;97182.41;;;18.45;100.00
58223;BME280;44020;50.890;15.796;2023-09-19T07:59:55;97187.98;;;18.44;100.00
58223;BME280;44020;50.890;15.796;2023-09-19T08:02:23;97181.65;;;18.39;100.00
58223;BME280;44020;50.890;15.796;2023-09-19T08:04:50;97188.83;;;18.36;100.00
58223;BME280;44020;50.890;15.796;2023-09-19T08:07:18;97188.77;;;18.35;100.00
58223;BME280;44020;50.890;15.796;2023-09-19T08:09:45;97189.17;;;18.33;99.96
58223;BME280;44020;50.890;15.796;2023-09-19T08:12:15;97194.70;;;18.34;99.95
58223;BME280;44020;50.890;15.796;2023-09-19T08:14:43;97202.84;;;18.37;100.00
58223;BME280;44020;50.890;15.796;2023-09-19T08:17:10;97204.31;;;18.41;99.14
58223;BME280;44020;50.890;15.796;2023-09-19T08:19:38;97202.77;;;18.42;97.80
58223;BME280;44020;50.890;15.796;2023-09-19T08:22:17;97200.98;;;18.42;98.26
58223;BME280;44020;50.890;15.796;2023-09-19T08:24:48;97203.06;;;18.44;96.79
58223;BME280;44020;50.890;15.796;2023-09-19T08:27:16;97207.30;;;18.43;97.34
58223;BME280;44020;50.890;15.796;2023-09-19T08:29:46;97209.20;;;18.45;97.80
58223;BME280;44020;50.890;15.796;2023-09-19T08:32:13;97208.83;;;18.47;96.11
58223;BME280;44020;50.890;15.796;2023-09-19T08:34:41;97212.41;;;18.43;94.90
58223;BME280;44020;50.890;15.796;2023-09-19T08:37:08;97217.16;;;18.37;95.25
58223;BME280;44020;50.890;15.796;2023-09-19T08:39:37;97222.76;;;18.37;94.97
58223;BME280;44020;50.890;15.796;2023-09-19T08:42:04;97226.13;;;18.36;94.54
58223;BME280;44020;50.890;15.796;2023-09-19T08:44:36;97228.02;;;18.38;94.27
58223;BME280;44020;50.890;15.796;2023-09-19T08:47:11;97230.55;;;18.43;93.86
58223;BME280;44020;50.890;15.796;2023-09-19T08:50:04;97230.79;;;18.45;92.85
58223;BME280;44020;50.890;15.796;2023-09-19T08:52:43;97233.83;;;18.46;90.68
58223;BME280;44020;50.890;15.796;2023-09-19T08:55:13;97238.85;;;18.47;88.90
58223;BME280;44020;50.890;15.796;2023-09-19T08:57:49;97237.42;;;18.50;88.23
58223;BME280;44020;50.890;15.796;2023-09-19T09:00:16;97237.09;;;18.54;87.62
58223;BME280;44020;50.890;15.796;2023-09-19T09:02:45;97236.59;;;18.57;87.69
58223;BME280;44020;50.890;15.796;2023-09-19T09:05:14;97236.98;;;18.64;87.41
58223;BME280;44020;50.890;15.796;2023-09-19T09:07:43;97245.91;;;18.71;86.25
58223;BME280;44020;50.890;15.796;2023-09-19T09:10:10;97244.29;;;18.73;84.96
58223;BME280;44020;50.890;15.796;2023-09-19T09:12:38;97246.95;;;18.72;84.40
58223;BME280;44020;50.890;15.796;2023-09-19T09:15:08;97251.00;;;18.71;83.53
58223;BME280;44020;50.890;15.796;2023-09-19T09:17:38;97249.53;;;18.69;82.97
58223;BME280;44020;50.890;15.796;2023-09-19T09:20:05;97251.89;;;18.66;82.95
58223;BME280;44020;50.890;15.796;2023-09-19T09:22:36;97253.00;;;18.67;82.36
58223;BME280;44020;50.890;15.796;2023-09-19T09:25:06;97260.50;;;18.68;81.07
58223;BME280;44020;50.890;15.796;2023-09-19T09:27:34;97264.37;;;18.65;82.46
58223;BME280;44020;50.890;15.796;2023-09-19T09:30:01;97268.09;;;18.69;83.56
58223;BME280;44020;50.890;15.796;2023-09-19T09:32:30;97268.56;;;18.77;82.35
58223;BME280;44020;50.890;15.796;2023-09-19T09:35:01;97274.52;;;18.79;81.99
58223;BME280;44020;50.890;15.796;2023-09-19T09:37:31;97274.91;;;18.78;80.86
58223;BME280;44020;50.890;15.796;2023-09-19T09:40:04;97275.50;;;18.72;81.60
58223;BME280;44020;50.890;15.796;2023-09-19T09:42:57;97282.77;;;18.72;82.21
58223;BME280;44020;50.890;15.796;2023-09-19T09:45:27;97284.38;;;18.72;80.52
58223;BME280;44020;50.890;15.796;2023-09-19T09:48:01;97287.15;;;18.73;80.45
58223;BME280;44020;50.890;15.796;2023-09-19T09:50:34;97293.72;;;18.79;79.64
58223;BME280;44020;50.890;15.796;2023-09-19T09:53:25;97295.64;;;18.87;78.02
58223;BME280;44020;50.890;15.796;2023-09-19T09:58:34;97286.80;;;19.07;77.39
58223;BME280;44020;50.890;15.796;2023-09-19T10:01:04;97286.13;;;19.16;75.90
58223;BME280;44020;50.890;15.796;2023-09-19T10:03:42;97288.98;;;19.26;76.21
58223;BME280;44020;50.890;15.796;2023-09-19T10:06:16;97293.89;;;19.39;74.75
58223;BME280;44020;50.890;15.796;2023-09-19T10:09:06;97284.71;;;19.45;73.91
58223;BME280;44020;50.890;15.796;2023-09-19T10:12:09;97282.57;;;19.54;72.53
58223;BME280;44020;50.890;15.796;2023-09-19T10:14:41;97286.59;;;19.59;70.27
58223;BME280;44020;50.890;15.796;2023-09-19T10:17:12;97274.96;;;19.58;72.04
58223;BME280;44020;50.890;15.796;2023-09-19T10:19:47;97278.34;;;19.66;72.32
58223;BME280;44020;50.890;15.796;2023-09-19T10:22:19;97285.38;;;19.66;72.11
58223;BME280;44020;50.890;15.796;2023-09-19T10:24:49;97293.73;;;19.66;70.63
58223;BME280;44020;50.890;15.796;2023-09-19T10:27:20;97292.20;;;19.69;71.77
58223;BME280;44020;50.890;15.796;2023-09-19T10:29:49;97295.12;;;19.77;70.79
58223;BME280;44020;50.890;15.796;2023-09-19T10:32:18;97293.90;;;19.77;71.15
58223;BME280;44020;50.890;15.796;2023-09-19T10:34:49;97290.64;;;19.74;71.38
58223;BME280;44020;50.890;15.796;2023-09-19T10:37:18;97292.94;;;19.74;71.08
58223;BME280;44020;50.890;15.796;2023-09-19T10:39:48;97297.15;;;19.75;70.78
58223;BME280;44020;50.890;15.796;2023-09-19T10:42:19;97296.77;;;19.69;69.99
58223;BME280;44020;50.890;15.796;2023-09-19T10:44:50;97298.73;;;19.61;69.01
58223;BME280;44020;50.890;15.796;2023-09-19T10:47:20;97301.88;;;19.54;70.22
58223;BME280;44020;50.890;15.796;2023-09-19T10:49:51;97303.98;;;19.53;70.57
58223;BME280;44020;50.890;15.796;2023-09-19T10:52:23;97302.22;;;19.52;71.63
58223;BME280;44020;50.890;15.796;2023-09-19T10:54:53;97298.16;;;19.61;72.83
58223;BME280;44020;50.890;15.796;2023-09-19T10:57:24;97296.55;;;19.78;73.27
58223;BME280;44020;50.890;15.796;2023-09-19T11:05:39;97289.27;;;20.11;69.56
58223;BME280;44020;50.890;15.796;2023-09-19T11:08:08;97284.59;;;20.20;68.36
58223;BME280;44020;50.890;15.796;2023-09-19T11:10:46;97282.64;;;20.32;68.50
58223;BME280;44020;50.890;15.796;2023-09-19T11:13:28;97277.05;;;20.46;67.72
58223;BME280;44020;50.890;15.796;2023-09-19T11:26:49;97285.19;;;20.71;59.34
58223;BME280;44020;50.890;15.796;2023-09-19T11:29:31;97283.94;;;20.60;58.88
58223;BME280;44020;50.890;15.796;2023-09-19T11:32:00;97282.63;;;20.45;59.36
58223;BME280;44020;50.890;15.796;2023-09-19T11:40:06;97272.27;;;20.24;61.48
58223;BME280;44020;50.890;15.796;2023-09-19T11:42:44;97273.33;;;20.29;61.64
58223;BME280;44020;50.890;15.796;2023-09-19T11:48:14;97266.81;;;20.35;61.95
58223;BME280;44020;50.890;15.796;2023-09-19T11:50:43;97259.95;;;20.39;62.92
58223;BME280;44020;50.890;15.796;2023-09-19T11:53:14;97266.49;;;20.51;62.72
58223;BME280;44020;50.890;15.796;2023-09-19T11:55:43;97265.67;;;20.52;63.66
58223;BME280;44020;50.890;15.796;2023-09-19T11:58:17;97270.11;;;20.57;64.27
58223;BME280;44020;50.890;15.796;2023-09-19T12:00:46;97272.35;;;20.71;63.69
58223;BME280;44020;50.890;15.796;2023-09-19T12:03:23;97269.88;;;20.78;62.92
58223;BME280;44020;50.890;15.796;2023-09-19T12:05:51;97269.02;;;20.80;61.75
58223;BME280;44020;50.890;15.796;2023-09-19T12:08:19;97270.47;;;20.88;62.85
58223;BME280;44020;50.890;15.796;2023-09-19T12:10:49;97270.63;;;20.95;63.65
58223;BME280;44020;50.890;15.796;2023-09-19T12:13:18;97266.63;;;21.03;65.11
58223;BME280;44020;50.890;15.796;2023-09-19T12:15:45;97274.27;;;21.15;65.40
58223;BME280;44020;50.890;15.796;2023-09-19T12:18:30;97273.45;;;21.25;65.63
58223;BME280;44020;50.890;15.796;2023-09-19T12:20:57;97272.34;;;21.40;65.61
58223;BME280;44020;50.890;15.796;2023-09-19T12:23:25;97272.70;;;21.49;63.40
58223;BME280;44020;50.890;15.796;2023-09-19T12:25:55;97275.60;;;21.51;62.77
58223;BME280;44020;50.890;15.796;2023-09-19T12:28:26;97275.81;;;21.45;63.33
58223;BME280;44020;50.890;15.796;2023-09-19T12:30:54;97279.66;;;21.41;62.06
58223;BME280;44020;50.890;15.796;2023-09-19T12:33:23;97273.40;;;21.30;62.65
58223;BME280;44020;50.890;15.796;2023-09-19T12:35:53;97273.08;;;21.28;63.63
58223;BME280;44020;50.890;15.796;2023-09-19T12:38:27;97276.35;;;21.32;62.63
58223;BME280;44020;50.890;15.796;2023-09-19T12:41:02;97275.36;;;21.30;63.04
58223;BME280;44020;50.890;15.796;2023-09-19T12:43:30;97277.48;;;21.37;63.64
58223;BME280;44020;50.890;15.796;2023-09-19T12:45:59;97278.22;;;21.47;64.54
58223;BME280;44020;50.890;15.796;2023-09-19T12:48:30;97274.80;;;21.57;63.83
58223;BME280;44020;50.890;15.796;2023-09-19T12:51:09;97274.95;;;21.65;63.48
58223;BME280;44020;50.890;15.796;2023-09-19T12:53:43;97274.29;;;21.68;63.10
58223;BME280;44020;50.890;15.796;2023-09-19T12:56:18;97268.29;;;21.77;63.33
58223;BME280;44020;50.890;15.796;2023-09-19T12:58:56;97266.89;;;21.88;63.46
58223;BME280;44020;50.890;15.796;2023-09-19T13:01:24;97265.65;;;21.96;63.44
58223;BME280;44020;50.890;15.796;2023-09-19T13:04:30;97263.77;;;22.01;62.90
58223;BME280;44020;50.890;15.796;2023-09-19T13:07:01;97260.84;;;22.19;63.26
58223;BME280;44020;50.890;15.796;2023-09-19T13:09:28;97262.66;;;22.32;62.34
58223;BME280;44020;50.890;15.796;2023-09-19T13:12:01;97260.88;;;22.29;62.13
58223;BME280;44020;50.890;15.796;2023-09-19T13:14:29;97261.60;;;22.52;61.88
58223;BME280;44020;50.890;15.796;2023-09-19T13:17:07;97258.67;;;23.09;61.24
58223;BME280;44020;50.890;15.796;2023-09-19T13:19:44;97256.20;;;23.28;60.88
58223;BME280;44020;50.890;15.796;2023-09-19T13:22:38;97245.94;;;23.37;60.91
58223;BME280;44020;50.890;15.796;2023-09-19T13:25:17;97247.83;;;23.31;60.47
58223;BME280;44020;50.890;15.796;2023-09-19T13:27:48;97248.80;;;23.15;59.79
58223;BME280;44020;50.890;15.796;2023-09-19T13:30:26;97247.45;;;23.05;60.17
58223;BME280;44020;50.890;15.796;2023-09-19T13:33:05;97245.96;;;22.98;60.02
58223;BME280;44020;50.890;15.796;2023-09-19T13:35:38;97241.86;;;22.84;60.81
58223;BME280;44020;50.890;15.796;2023-09-19T13:38:07;97244.63;;;22.80;60.71
58223;BME280;44020;50.890;15.796;2023-09-19T13:40:41;97246.89;;;22.79;60.07
58223;BME280;44020;50.890;15.796;2023-09-19T13:43:16;97245.16;;;22.83;60.45
58223;BME280;44020;50.890;15.796;2023-09-19T13:45:43;97243.69;;;22.94;59.77